Soesterberg, Nederland

11:10 AM CEST op 23 juli 2016 (GMT +0200)
Van der Griendtlaan | | Change Station

Hoogte 56 ft 52.12 °N, 5.28 °E | Updated 15 seconds ago

Partly Cloudy
Gedeeltelijk bewolkt
72.8 °F
Voelt als 74 °F
N
5.0
Wind Variabel Wind van NNO
Gusts 5.0 mijl/u

Vandaag
Hoog -- | Laag -- °F
--% Kans op neerslag
Gisteren
Hoog -- | Laag -- °F
Precip. -- inches
Druk 30.09 inches
Zicht 6.2 mijlen
Wolken Gering 1800 ft
Warmteindex 74 °F
Dauwpunt 64 °F
Vochtigheid 74%
Neerslag 0.00 inches
Dikte sneeuw Niet beschikbaar.
5:47 AM 9:42 PM
Afnemende maan, 86% visible
METAR EHAM 230855Z 03006KT 340V090 9999 FEW018 22/17 Q1019 NOSIG
Druk 30.09 inches
Zicht 6.2 mijlen
Wolken Gering 1800 ft
Warmteindex 74 °F
Dauwpunt 64 °F
Vochtigheid 74%
Neerslag 0.00 inches
Dikte sneeuw Niet beschikbaar.
5:47 AM 9:42 PM
Afnemende maan, 86% visible
METAR EHAM 230855Z 03006KT 340V090 9999 FEW018 22/17 Q1019 NOSIG

10-Day Weather Forecast

×

Almanac

Astronomie

Jul. 23, 2016 Opkomst Ondergang
Werkelijke tijd
Burgerlijke schemering
Nautische schemering
Astronomische schemering
Maan
Golflengte van het zichtbare licht
Daglengte
Tomorrow will be .
, % of the Moon is Illuminated

Extremen vandaag

Country Highs Country Lows

Community

WunderPhotos

Upload Photos

1,926,790 foto’s ge-upload!

WunderBlog® & News

Nearby

Luchtkwaliteit

  Luchtkwaliteit LK-index Verontreinigende stof
Not available.

Dikte sneeuw

Station Depth Geometrische hoogte

Aardbevingen

Stad Distance Mag. Time & Date
Minimum magnitude displayed is 2.5.

Watertemperatuur langs de kust

Plaats Temperatuur

Stations

Nabije weerstations

Locatie station Temp. Gevoelstemperatuur Dauwpunt Vochtigheid Wind Precip. Hoogte Geactualiseerd Type